createdAt,value
2018-09-11T00:02:14.623Z,59.48
2018-09-11T00:04:44.032Z,59.24
2018-09-11T00:07:13.996Z,58.91
2018-09-11T00:09:44.432Z,58.56
2018-09-11T00:12:14.163Z,58.99
2018-09-11T00:14:45.821Z,58.78
2018-09-11T00:17:30.314Z,58.40
2018-09-11T00:20:00.616Z,58.06
2018-09-11T00:22:30.375Z,58.03
2018-09-11T00:25:00.504Z,57.70
2018-09-11T00:27:30.661Z,58.13
2018-09-11T00:30:05.506Z,57.70
2018-09-11T00:32:36.341Z,57.45
2018-09-11T00:35:05.875Z,57.16
2018-09-11T00:37:46.915Z,57.29
2018-09-11T00:40:18.316Z,57.18
2018-09-11T00:42:48.509Z,57.22
2018-09-11T00:45:18.443Z,56.85
2018-09-11T00:47:48.103Z,56.23
2018-09-11T00:50:17.802Z,57.09
2018-09-11T00:52:48.477Z,56.44
2018-09-11T00:55:25.510Z,56.74
2018-09-11T00:58:00.537Z,57.04
2018-09-11T01:00:31.286Z,56.65
2018-09-11T01:03:00.905Z,56.28
2018-09-11T01:05:31.597Z,55.89
2018-09-11T01:08:03.305Z,55.78
2018-09-11T01:10:33.088Z,56.44
2018-09-11T01:13:02.656Z,56.93
2018-09-11T01:15:32.724Z,57.10
2018-09-11T01:18:02.639Z,57.97
2018-09-11T01:20:32.079Z,57.95
2018-09-11T01:23:01.868Z,57.73
2018-09-11T01:25:31.558Z,58.42
2018-09-11T01:28:01.425Z,58.16
2018-09-11T01:30:32.012Z,58.50
2018-09-11T01:33:01.484Z,58.02
2018-09-11T01:35:31.040Z,58.84
2018-09-11T01:38:02.195Z,58.83
2018-09-11T01:40:32.902Z,58.17
2018-09-11T01:43:06.221Z,58.54
2018-09-11T01:45:36.845Z,59.13
2018-09-11T01:48:07.582Z,59.94
2018-09-11T01:50:37.437Z,59.29
2018-09-11T01:53:06.913Z,59.36
2018-09-11T01:55:36.478Z,59.95
2018-09-11T01:58:07.978Z,59.68
2018-09-11T02:00:37.536Z,59.65
2018-09-11T02:03:07.039Z,59.34
2018-09-11T02:05:36.651Z,59.09
2018-09-11T02:08:06.949Z,59.21
2018-09-11T02:10:37.637Z,59.60
2018-09-11T02:13:10.212Z,60.20
2018-09-11T02:15:39.795Z,59.82
2018-09-11T02:18:10.584Z,59.29
2018-09-11T02:20:41.900Z,59.75
2018-09-11T02:23:16.498Z,59.25
2018-09-11T02:25:47.046Z,59.72
2018-09-11T02:28:17.151Z,60.00
2018-09-11T02:30:47.307Z,59.58
2018-09-11T02:33:17.224Z,59.11
2018-09-11T02:35:46.755Z,59.63
2018-09-11T02:38:16.388Z,59.53
2018-09-11T02:40:46.888Z,59.01
2018-09-11T02:45:42.654Z,58.79
2018-09-11T02:48:12.074Z,59.09
2018-09-11T02:50:41.748Z,58.92
2018-09-11T02:53:11.649Z,59.27
2018-09-11T02:55:41.163Z,59.52
2018-09-11T02:58:11.013Z,59.98
2018-09-11T03:00:40.818Z,59.13
2018-09-11T03:03:10.476Z,59.46
2018-09-11T03:05:40.153Z,59.79
2018-09-11T03:08:10.164Z,60.06
2018-09-11T03:10:39.753Z,60.51
2018-09-11T03:13:10.369Z,60.01
2018-09-11T03:15:40.231Z,60.78
2018-09-11T03:18:09.575Z,59.80
2018-09-11T03:20:41.116Z,59.62
2018-09-11T03:23:11.015Z,59.88
2018-09-11T03:25:40.803Z,59.63
2018-09-11T03:28:10.679Z,59.64
2018-09-11T03:30:40.397Z,59.46
2018-09-11T03:33:09.828Z,59.25
2018-09-11T03:35:39.753Z,60.46
2018-09-11T03:38:10.331Z,60.17
2018-09-11T03:40:40.138Z,61.25
2018-09-11T03:43:10.205Z,61.05
2018-09-11T03:45:43.978Z,59.79
2018-09-11T03:48:14.472Z,60.02
2018-09-11T03:50:44.203Z,59.82
2018-09-11T03:53:13.575Z,59.60
2018-09-11T03:55:43.321Z,59.42
2018-09-11T03:58:13.262Z,58.98
2018-09-11T04:00:43.139Z,58.74
2018-09-11T04:03:12.491Z,59.16
2018-09-11T04:05:42.113Z,58.48
2018-09-11T04:08:11.525Z,58.47
2018-09-11T04:10:40.815Z,58.50
2018-09-11T04:13:10.546Z,58.20
2018-09-11T04:15:40.100Z,58.58
2018-09-11T04:18:09.518Z,58.07
2018-09-11T04:20:40.260Z,58.34
2018-09-11T04:23:09.744Z,57.85
2018-09-11T04:25:38.988Z,58.14
2018-09-11T04:28:08.648Z,57.68
2018-09-11T04:30:38.135Z,57.49
2018-09-11T04:33:07.683Z,57.30
2018-09-11T04:35:37.925Z,56.91
2018-09-11T04:38:07.361Z,57.08
2018-09-11T04:40:36.737Z,56.51
2018-09-11T04:43:06.455Z,57.19
2018-09-11T04:45:36.262Z,56.61
2018-09-11T04:48:05.881Z,57.00
2018-09-11T04:50:35.686Z,57.68
2018-09-11T04:53:05.706Z,57.73
2018-09-11T04:55:40.003Z,57.12
2018-09-11T04:58:10.767Z,56.96
2018-09-11T05:00:40.716Z,57.08
2018-09-11T05:03:21.048Z,56.73
2018-09-11T05:05:52.909Z,57.45
2018-09-11T05:08:22.542Z,56.73
2018-09-11T05:10:52.959Z,56.84
2018-09-11T05:13:23.547Z,57.02
2018-09-11T05:15:54.924Z,56.87
2018-09-11T05:18:34.387Z,56.63
2018-09-11T05:21:05.673Z,57.21
2018-09-11T05:23:34.974Z,57.83
2018-09-11T05:26:04.854Z,58.01
2018-09-11T05:28:34.940Z,57.52
2018-09-11T05:31:04.920Z,57.46
2018-09-11T05:33:34.818Z,58.17
2018-09-11T05:36:08.448Z,57.99
2018-09-11T05:38:38.360Z,57.69
2018-09-11T05:41:08.287Z,57.92
2018-09-11T05:43:37.824Z,57.88
2018-09-11T05:46:07.760Z,58.18
2018-09-11T05:48:39.257Z,58.01
2018-09-11T05:51:08.942Z,57.75
2018-09-11T05:53:40.069Z,57.36
2018-09-11T05:56:16.106Z,57.78
2018-09-11T05:58:47.756Z,57.57
2018-09-11T06:01:18.084Z,57.10
2018-09-11T06:03:47.705Z,57.38
2018-09-11T06:06:20.104Z,57.47
2018-09-11T06:08:50.101Z,56.57
2018-09-11T06:11:20.009Z,57.67
2018-09-11T06:14:12.674Z,57.86
2018-09-11T06:16:43.808Z,57.03
2018-09-11T06:19:13.583Z,57.50
2018-09-11T06:21:43.415Z,56.84
2018-09-11T06:24:21.335Z,57.81
2018-09-11T06:26:50.817Z,56.84
2018-09-11T06:29:26.804Z,57.08
2018-09-11T06:32:02.606Z,56.59
2018-09-11T06:34:37.398Z,56.70
2018-09-11T06:37:07.020Z,56.23
2018-09-11T06:39:40.654Z,56.41
2018-09-11T06:43:06.537Z,55.98
2018-09-11T06:45:50.156Z,55.89
2018-09-11T06:48:22.265Z,54.11
2018-09-11T06:50:52.554Z,53.55
2018-09-11T06:53:30.113Z,53.20
2018-09-11T06:56:01.948Z,52.33
2018-09-11T06:58:34.553Z,52.48
2018-09-11T07:01:05.070Z,52.67
2018-09-11T07:03:36.365Z,50.72
2018-09-11T07:06:06.824Z,49.79
2018-09-11T07:08:36.819Z,50.83
2018-09-11T07:11:06.381Z,52.09
2018-09-11T07:13:38.575Z,52.02
2018-09-11T07:16:11.962Z,51.94
2018-09-11T07:18:42.070Z,52.21
2018-09-11T07:21:12.055Z,52.02
2018-09-11T07:23:41.958Z,51.61
2018-09-11T07:26:12.719Z,52.66
2018-09-11T07:28:46.827Z,51.79
2018-09-11T07:31:16.907Z,50.96
2018-09-11T07:33:47.829Z,52.35
2018-09-11T07:36:25.204Z,51.52
2018-09-11T07:38:59.904Z,51.40
2018-09-11T07:41:37.165Z,51.07
2018-09-11T07:44:10.746Z,51.16
2018-09-11T07:49:22.060Z,51.15
2018-09-11T07:51:51.625Z,50.17
2018-09-11T07:54:20.980Z,48.89
2018-09-11T07:56:51.281Z,47.82
2018-09-11T07:59:21.956Z,45.88
2018-09-11T08:01:54.134Z,46.45
2018-09-11T08:04:33.339Z,47.00
2018-09-11T08:07:03.582Z,47.04
2018-09-11T08:09:40.107Z,47.09
2018-09-11T08:14:55.377Z,46.18
2018-09-11T08:17:33.495Z,46.46
2018-09-11T08:20:13.437Z,45.31
2018-09-11T08:22:43.186Z,45.58
2018-09-11T08:25:12.811Z,44.82
2018-09-11T08:27:44.300Z,44.59
2018-09-11T08:30:17.315Z,43.38
2018-09-11T08:32:51.588Z,42.59
2018-09-11T08:35:25.372Z,43.10
2018-09-11T08:37:54.982Z,42.36
2018-09-11T08:40:25.929Z,42.93
2018-09-11T08:42:57.851Z,43.09
2018-09-11T08:45:27.697Z,42.86
2018-09-11T08:47:58.147Z,42.78
2018-09-11T08:50:28.965Z,41.75
2018-09-11T08:53:00.085Z,42.10
2018-09-11T08:55:31.370Z,41.93
2018-09-11T08:58:01.373Z,42.32
2018-09-11T09:00:32.235Z,40.40
2018-09-11T09:03:01.853Z,40.43
2018-09-11T09:05:32.522Z,41.30
2018-09-11T09:08:03.230Z,40.74
2018-09-11T09:10:33.411Z,41.55
2018-09-11T09:13:07.064Z,41.55
2018-09-11T09:15:38.229Z,40.00
2018-09-11T09:18:08.517Z,40.48
2018-09-11T09:20:43.348Z,41.04
2018-09-11T09:23:27.436Z,39.89
2018-09-11T09:26:09.915Z,39.06
2018-09-11T09:28:42.480Z,39.52
2018-09-11T09:31:17.666Z,37.20
2018-09-11T09:33:49.673Z,37.37
2018-09-11T09:36:22.099Z,35.71
2018-09-11T09:38:56.521Z,36.13
2018-09-11T09:41:31.732Z,35.13
2018-09-11T09:44:02.427Z,35.58
2018-09-11T09:46:33.472Z,34.68
2018-09-11T09:49:12.639Z,35.39
2018-09-11T09:51:45.865Z,34.96
2018-09-11T09:54:16.110Z,35.00
2018-09-11T09:56:46.502Z,35.25
2018-09-11T09:59:20.293Z,35.14
2018-09-11T10:01:57.083Z,34.42
2018-09-11T10:04:28.336Z,34.75
2018-09-11T10:07:00.399Z,35.08
2018-09-11T10:09:35.436Z,35.79
2018-09-11T10:12:07.807Z,34.59
2018-09-11T10:14:39.811Z,34.81
2018-09-11T10:17:14.943Z,34.07
2018-09-11T10:19:53.323Z,33.21
2018-09-11T10:22:22.996Z,33.09
2018-09-11T10:24:52.475Z,32.59
2018-09-11T10:27:25.674Z,32.75
2018-09-11T10:29:57.433Z,32.46
2018-09-11T10:32:28.101Z,33.61
2018-09-11T10:35:09.574Z,32.39
2018-09-11T10:37:39.939Z,32.24
2018-09-11T10:40:12.535Z,32.93
2018-09-11T10:42:47.387Z,32.58
2018-09-11T10:45:21.248Z,31.73
2018-09-11T10:47:51.270Z,31.27
2018-09-11T10:50:21.000Z,31.43
2018-09-11T10:52:52.210Z,31.15
2018-09-11T10:55:22.313Z,30.81
2018-09-11T10:57:59.230Z,30.67
2018-09-11T11:03:22.362Z,29.71
2018-09-11T11:05:52.818Z,29.91
2018-09-11T11:08:23.566Z,30.50
2018-09-11T11:10:58.601Z,30.10
2018-09-11T11:13:28.833Z,30.51
2018-09-11T11:15:59.644Z,30.55
2018-09-11T11:18:31.744Z,29.91
2018-09-11T11:21:09.750Z,29.12
2018-09-11T11:23:42.333Z,29.30
2018-09-11T11:26:17.010Z,29.96
2018-09-11T11:28:54.443Z,30.62
2018-09-11T11:31:36.507Z,30.29
2018-09-11T11:34:08.145Z,29.71
2018-09-11T11:36:44.899Z,30.56
2018-09-11T11:39:19.057Z,30.55
2018-09-11T11:41:50.961Z,30.08
2018-09-11T11:44:22.666Z,29.74
2018-09-11T11:46:53.289Z,29.79
2018-09-11T11:49:22.711Z,30.13
2018-09-11T11:51:57.496Z,29.30
2018-09-11T11:54:27.871Z,29.80
2018-09-11T11:56:57.220Z,29.54
2018-09-11T11:59:32.042Z,28.30
2018-09-11T12:02:04.563Z,28.68
2018-09-11T12:04:35.965Z,28.71
2018-09-11T12:07:06.536Z,28.18
2018-09-11T12:09:38.909Z,28.12
2018-09-11T12:12:10.644Z,29.33
2018-09-11T12:14:44.997Z,28.77
2018-09-11T12:17:16.569Z,28.69
2018-09-11T12:19:47.301Z,28.47
2018-09-11T12:22:28.291Z,28.59
2018-09-11T12:25:04.071Z,28.58
2018-09-11T12:27:33.609Z,28.30
2018-09-11T12:30:06.669Z,28.88
2018-09-11T12:32:36.679Z,27.91
2018-09-11T12:35:06.718Z,27.70
2018-09-11T12:37:37.667Z,27.98
2018-09-11T12:40:12.470Z,27.99
2018-09-11T12:42:42.899Z,28.28
2018-09-11T12:45:20.364Z,28.66
2018-09-11T12:47:50.013Z,28.10
2018-09-11T12:50:23.683Z,28.40
2018-09-11T12:52:53.050Z,29.25
2018-09-11T12:55:23.011Z,29.25
2018-09-11T12:57:56.125Z,28.87
2018-09-11T13:00:37.661Z,28.18
2018-09-11T13:03:10.318Z,27.74
2018-09-11T13:05:41.876Z,27.83
2018-09-11T13:08:14.890Z,27.84
2018-09-11T13:10:45.219Z,28.63
2018-09-11T13:13:14.961Z,28.27
2018-09-11T13:15:45.936Z,28.02
2018-09-11T13:18:23.862Z,28.62
2018-09-11T13:20:57.286Z,28.84
2018-09-11T13:23:59.322Z,28.37
2018-09-11T13:26:30.193Z,28.04
2018-09-11T13:29:01.715Z,27.44
2018-09-11T13:31:32.185Z,28.33
2018-09-11T13:34:01.507Z,27.62
2018-09-11T13:36:33.338Z,27.53
2018-09-11T13:39:06.138Z,27.35
2018-09-11T13:41:35.584Z,28.09
2018-09-11T13:44:05.385Z,28.71
2018-09-11T13:46:37.877Z,29.12
2018-09-11T13:49:10.080Z,28.78
2018-09-11T13:51:41.554Z,28.81
2018-09-11T13:54:12.261Z,28.29
2018-09-11T13:56:44.721Z,29.11
2018-09-11T13:59:17.534Z,29.74
2018-09-11T14:07:30.970Z,30.08
2018-09-11T14:10:10.651Z,28.68
2018-09-11T14:12:43.593Z,29.42
2018-09-11T14:15:32.202Z,29.37
2018-09-11T14:18:05.627Z,28.35
2018-09-11T14:20:49.677Z,27.03
2018-09-11T14:23:21.133Z,27.32
2018-09-11T14:26:12.333Z,26.86
2018-09-11T14:28:58.070Z,26.80
2018-09-11T14:31:31.003Z,25.60
2018-09-11T14:34:07.872Z,25.68
2018-09-11T14:39:50.497Z,26.53
2018-09-11T14:42:35.653Z,26.14
2018-09-11T14:48:18.753Z,26.61
2018-09-11T14:51:07.268Z,26.67
2018-09-11T14:56:30.816Z,26.46
2018-09-11T14:59:12.410Z,26.34
2018-09-11T15:01:59.525Z,26.45
2018-09-11T15:04:45.125Z,26.70
2018-09-11T15:07:28.014Z,27.15
2018-09-11T15:10:11.559Z,26.45
2018-09-11T15:12:44.202Z,26.70
2018-09-11T15:15:24.217Z,26.51
2018-09-11T15:18:01.772Z,27.19
2018-09-11T15:20:52.643Z,27.73
2018-09-11T15:23:32.048Z,28.13
2018-09-11T15:26:04.260Z,28.16
2018-09-11T15:28:56.896Z,28.82
2018-09-11T15:31:38.564Z,28.92
2018-09-11T15:34:11.962Z,27.92
2018-09-11T15:36:46.904Z,28.41
2018-09-11T15:39:18.629Z,29.22
2018-09-11T15:41:49.655Z,29.34
2018-09-11T15:44:26.792Z,29.41
2018-09-11T15:46:58.420Z,29.21
2018-09-11T15:49:28.435Z,29.50
2018-09-11T15:52:06.914Z,29.54
2018-09-11T15:54:41.083Z,28.99
2018-09-11T15:57:33.488Z,29.41
2018-09-11T16:00:26.902Z,28.96
2018-09-11T16:02:58.006Z,29.09
2018-09-11T16:05:29.939Z,29.54
2018-09-11T16:08:04.158Z,28.95
2018-09-11T16:10:40.789Z,28.66
2018-09-11T16:13:25.031Z,29.46
2018-09-11T16:15:56.800Z,28.93
2018-09-11T16:21:26.175Z,29.47
2018-09-11T16:23:55.776Z,29.83
2018-09-11T16:26:26.164Z,29.32
2018-09-11T16:28:56.144Z,29.77
2018-09-11T16:31:50.787Z,29.99
2018-09-11T16:34:33.785Z,29.05
2018-09-11T16:37:07.272Z,29.07
2018-09-11T16:39:46.506Z,30.04
2018-09-11T16:42:19.444Z,29.46
2018-09-11T16:48:16.350Z,29.56
2018-09-11T16:51:52.089Z,30.03
2018-09-11T16:54:32.080Z,30.23
2018-09-11T16:57:48.925Z,29.85
2018-09-11T17:00:22.480Z,30.83
2018-09-11T17:03:05.634Z,30.83
2018-09-11T17:05:37.277Z,30.20
2018-09-11T17:08:14.492Z,30.45
2018-09-11T17:10:52.400Z,30.40
2018-09-11T17:13:29.370Z,31.02
2018-09-11T17:16:11.127Z,30.72
2018-09-11T17:18:58.038Z,31.61
2018-09-11T17:21:59.755Z,31.43
2018-09-11T17:24:32.062Z,31.50
2018-09-11T17:27:15.231Z,30.90
2018-09-11T17:30:10.644Z,32.03
2018-09-11T17:33:05.374Z,31.49
2018-09-11T17:38:30.589Z,31.28
2018-09-11T17:43:57.718Z,31.97
2018-09-11T17:46:29.586Z,31.98
2018-09-11T17:49:12.244Z,32.21
2018-09-11T17:51:54.750Z,32.06
2018-09-11T17:54:31.320Z,31.99
2018-09-11T17:57:29.746Z,32.18
2018-09-11T18:00:09.262Z,32.91
2018-09-11T18:02:42.714Z,33.11
2018-09-11T18:05:15.680Z,32.56
2018-09-11T18:07:52.173Z,32.75
2018-09-11T18:10:22.636Z,33.22
2018-09-11T18:12:54.904Z,32.54
2018-09-11T18:15:27.991Z,32.70
2018-09-11T18:17:58.748Z,33.62
2018-09-11T18:22:02.373Z,32.84
2018-09-11T18:24:41.450Z,33.09
2018-09-11T18:27:14.551Z,33.69
2018-09-11T18:29:52.924Z,33.71
2018-09-11T18:32:30.697Z,33.95
2018-09-11T18:35:22.431Z,33.08
2018-09-11T18:38:05.571Z,34.02
2018-09-11T18:40:55.105Z,33.36
2018-09-11T18:43:41.835Z,33.63
2018-09-11T18:46:12.231Z,34.36
2018-09-11T18:48:52.939Z,34.31
2018-09-11T18:54:15.394Z,34.20
2018-09-11T18:56:45.269Z,34.06
2018-09-11T18:59:17.561Z,33.73
2018-09-11T19:01:50.563Z,34.06
2018-09-11T19:04:23.597Z,34.18
2018-09-11T19:06:53.539Z,34.20
2018-09-11T19:09:35.576Z,35.02
2018-09-11T19:15:18.327Z,34.94
2018-09-11T19:17:47.941Z,35.57
2018-09-11T19:20:28.866Z,35.92
2018-09-11T19:23:05.988Z,34.81
2018-09-11T19:25:37.942Z,35.69
2018-09-11T19:28:08.618Z,35.67
2018-09-11T19:31:24.815Z,35.14
2018-09-11T19:33:59.537Z,35.17
2018-09-11T19:36:29.370Z,35.24
2018-09-11T19:39:01.391Z,35.66
2018-09-11T19:41:50.841Z,36.85
2018-09-11T19:44:30.608Z,36.59
2018-09-11T19:47:26.811Z,36.89
2018-09-11T19:50:03.742Z,37.53
2018-09-11T19:52:44.605Z,38.56
2018-09-11T19:55:17.028Z,38.01
2018-09-11T19:57:49.333Z,38.15
2018-09-11T20:00:25.596Z,38.46
2018-09-11T20:03:13.486Z,39.01
2018-09-11T20:05:44.428Z,39.67
2018-09-11T20:08:21.606Z,39.61
2018-09-11T20:10:51.171Z,39.24
2018-09-11T20:13:21.694Z,38.96
2018-09-11T20:18:46.391Z,39.23
2018-09-11T20:21:23.252Z,38.91
2018-09-11T20:24:01.518Z,39.88
2018-09-11T20:32:13.861Z,39.47
2018-09-11T20:34:56.635Z,41.05
2018-09-11T20:37:39.868Z,40.95
2018-09-11T20:40:17.657Z,41.18
2018-09-11T20:42:47.681Z,41.18
2018-09-11T20:45:19.486Z,41.88
2018-09-11T20:47:53.350Z,41.60
2018-09-11T20:50:24.681Z,40.59
2018-09-11T20:52:56.316Z,41.04
2018-09-11T20:55:30.778Z,41.25
2018-09-11T20:58:02.338Z,41.28
2018-09-11T21:00:39.807Z,41.51
2018-09-11T21:03:17.907Z,41.65
2018-09-11T21:06:44.715Z,41.79
2018-09-11T21:12:33.170Z,43.12
2018-09-11T21:15:14.197Z,42.40
2018-09-11T21:17:45.040Z,42.79
2018-09-11T21:20:26.983Z,42.66
2018-09-11T21:23:01.675Z,42.82
2018-09-11T21:29:17.709Z,43.25
2018-09-11T21:31:50.439Z,44.04
2018-09-11T21:34:22.452Z,43.96
2018-09-11T21:37:13.323Z,43.83
2018-09-11T21:39:56.489Z,44.17
2018-09-11T21:42:28.302Z,44.61
2018-09-11T21:44:58.312Z,44.51
2018-09-11T21:47:41.517Z,43.94
2018-09-11T21:50:39.967Z,44.36
2018-09-11T21:56:14.835Z,43.91
2018-09-11T21:58:56.324Z,43.61
2018-09-11T22:01:51.871Z,44.32
2018-09-11T22:04:25.411Z,44.66
2018-09-11T22:07:08.464Z,44.55
2018-09-11T22:12:54.751Z,44.71
2018-09-11T22:15:38.355Z,45.07
2018-09-11T22:18:14.290Z,44.60
2018-09-11T22:20:49.559Z,45.52
2018-09-11T22:23:24.580Z,45.99
2018-09-11T22:25:59.660Z,45.92
2018-09-11T22:28:30.864Z,45.36
2018-09-11T22:31:13.277Z,45.60
2018-09-11T22:33:45.388Z,45.07
2018-09-11T22:36:26.026Z,45.22
2018-09-11T22:39:17.293Z,45.46
2018-09-11T22:42:06.104Z,46.27
2018-09-11T22:44:46.767Z,45.96
2018-09-11T22:47:26.235Z,45.00
2018-09-11T22:49:56.691Z,45.32
2018-09-11T22:52:28.340Z,45.85
2018-09-11T22:54:59.536Z,44.83
2018-09-11T22:57:33.280Z,44.84
2018-09-11T23:00:08.451Z,45.34
2018-09-11T23:02:52.614Z,45.18
2018-09-11T23:05:27.389Z,44.71
2018-09-11T23:07:58.104Z,45.10
2018-09-11T23:10:27.320Z,44.97
2018-09-11T23:12:59.657Z,45.13
2018-09-11T23:15:31.616Z,45.53
2018-09-11T23:18:01.070Z,45.78
2018-09-11T23:20:30.812Z,46.04
2018-09-11T23:23:01.059Z,46.01
2018-09-11T23:25:31.889Z,47.51
2018-09-11T23:28:08.302Z,47.63
2018-09-11T23:30:42.892Z,47.87
2018-09-11T23:33:20.750Z,47.96
2018-09-11T23:35:58.818Z,48.68
2018-09-11T23:38:29.146Z,48.66
2018-09-11T23:40:58.791Z,48.66
2018-09-11T23:43:35.676Z,48.25
2018-09-11T23:46:12.221Z,47.73
2018-09-11T23:48:41.808Z,48.23
2018-09-11T23:51:12.331Z,47.90
2018-09-11T23:53:42.224Z,48.61
2018-09-11T23:56:15.038Z,48.48
2018-09-11T23:58:45.431Z,49.54
